Etna, NY (13062)

12:52 PM EST on December 22, 2014 (GMT -0500)
Ellis Hollow | Change Station
CLOSE
Current Station
Personal Weather Station
Location: Ithaca, NY
Elevation: 1368 ft
Nearby Weather Stations

Elev 1368 ft 42.45 °N, 76.41 °W | Updated 6 minutes ago

Overcast
Overcast
39.9 °F
Feels Like 38 °F
N
3.7
Wind Variable Wind from SE

Today
High -- | Low -- °F
--% Chance of Precip.
Yesterday
High -- | Low -- °F
Precip. -- in
7:32 AM 4:36 PM
New Moon, 1% visible
Pressure 30.25 in
Visibility 10.0 miles
Clouds Overcast 1700 ft
Windchill 38 °F
Dew Point 29 °F
Humidity 64%
Rainfall 0.00 in
Snow Depth Not available.
UV 1 out of 12
Pollen .10 out of 12
Air Quality Not available.
Flu Activity Not available.
METAR KITH 221656Z 17011KT 10SM OVC017 01/M03 A3021 RMK AO2 T00111027 SLP244

More Conditions Fewer Conditions

Pressure 30.25 in
Visibility 10.0 miles
Clouds Overcast 1700 ft
Windchill 38 °F
Dew Point 29 °F
Humidity 64%
Rainfall 0.00 in
Snow Depth Not available.
UV 1 out of 12
Pollen .10 out of 12
Air Quality Not available.
Flu Activity Not available.
METAR KITH 221656Z 17011KT 10SM OVC017 01/M03 A3021 RMK AO2 T00111027 SLP244

More Conditions Fewer Conditions

10-Day Weather Forecast

Almanac

Astronomy

Dec. 22, 2014 Rise Set
Actual Time
Civil Twilight
Nautical Twilight
Astronomical Twilight
Moon
Length of Visible Light
Length of Day
Tomorrow will be .
, % of the Moon is Illuminated

Today's Extremes

State Highs State Lows

Community

WunderPhotos

Upload Photos

1,779,655 photos uploaded!

WunderBlogs® & News

Nearby

Air Quality

  Air Quality AQ Index Pollutant
Not available.

Snow Depth

Station Depth Elevation

Earthquake Activity

City Distance Mag. Time & Date
Minimum magnitude displayed is 2.5.

Coastal Water Temperatures

Place Temperature

Nearby Weather Stations